Time;durP1;ratioP1;P1;durP2;ratioP2;P2;SDS_P1;SDS_P2;PMS_P1;PMS_P2;Temp;Humidity;BMP_temperature;BMP_pressure;BME280_temperature;BME280_humidity;BME280_pressure;Samples;Min_cycle;Max_cycle;Signal;HPM_P1;HPM_P2
2022/08/23 00:01:55;;;;;;;;;7.33;7.00;;;;;24.68;62.21;98050.72;6141546;22;102354;-83
2022/08/23 00:04:28;;;;;;;;;8.00;7.00;;;;;24.67;62.01;98054.63;6144801;22;102216;-83
2022/08/23 00:07:00;;;;;;;;;6.00;6.00;;;;;24.67;61.94;98051.88;6148180;22;102178;-83
2022/08/23 00:09:29;;;;;;;;;7.33;7.00;;;;;24.65;62.16;98051.34;6141601;22;104111;-83
2022/08/23 00:12:08;;;;;;;;;8.33;7.67;;;;;24.67;62.05;98046.34;6141165;22;102355;-83
2022/08/23 00:14:36;;;;;;;;;7.67;6.67;;;;;24.66;62.23;98041.94;6142768;22;102779;-83
2022/08/23 00:17:04;;;;;;;;;6.00;6.00;;;;;24.67;62.21;98048.28;6094239;22;102637;-83
2022/08/23 00:19:31;;;;;;;;;7.33;6.33;;;;;24.66;62.17;98047.47;6109236;22;103990;-83
2022/08/23 00:21:58;;;;;;;;;9.00;7.00;;;;;24.65;62.01;98045.81;6137925;22;102477;-83
2022/08/23 00:24:25;;;;;;;;;7.00;7.00;;;;;24.66;62.04;98058.53;6135362;22;103201;-83
2022/08/23 00:27:10;;;;;;;;;8.00;7.33;;;;;24.66;62.03;98050.22;6084403;22;102190;-82
2022/08/23 00:29:38;;;;;;;;;7.00;6.67;;;;;24.65;62.01;98048.56;6146359;22;103480;-83
2022/08/23 00:32:07;;;;;;;;;6.00;6.00;;;;;24.65;61.98;98051.34;6118692;22;102573;-83
2022/08/23 00:34:35;;;;;;;;;6.67;6.67;;;;;24.65;61.79;98045.00;6145883;22;102556;-83
2022/08/23 00:37:02;;;;;;;;;6.00;6.00;;;;;24.65;61.88;98058.81;6147007;22;102544;-83
2022/08/23 00:39:29;;;;;;;;;8.00;8.00;;;;;24.63;62.01;98058.31;6120792;22;106084;-83
2022/08/23 00:47:38;;;;;;;;;6.00;6.00;;;;;24.61;62.01;98058.59;6142237;22;102104;-83
2022/08/23 00:47:40;;;;;;;;;6.33;6.00;;;;;24.63;62.09;98059.09;6145214;22;102550;-83
2022/08/23 00:50:25;;;;;;;;;5.00;5.00;;;;;24.63;62.12;98059.09;6122748;22;104335;-83
2022/08/23 00:53:04;;;;;;;;;6.00;6.00;;;;;24.62;61.98;98060.25;6141399;22;102557;-83
2022/08/23 00:55:32;;;;;;;;;7.33;7.00;;;;;24.62;62.27;98063.03;6090925;22;102315;-83
2022/08/23 00:57:59;;;;;;;;;6.67;5.00;;;;;24.62;61.92;98068.56;6145747;22;102550;-83
2022/08/23 01:00:27;;;;;;;;;8.00;7.00;;;;;24.63;61.90;98061.09;6116146;22;103986;-83
2022/08/23 01:02:55;;;;;;;;;6.33;6.00;;;;;24.63;61.98;98061.09;6145492;22;101762;-83
2022/08/23 01:05:33;;;;;;;;;6.00;6.00;;;;;24.62;62.10;98067.72;6129051;22;102252;-83
2022/08/23 01:08:00;;;;;;;;;6.00;6.00;;;;;24.61;61.80;98066.91;6133656;22;102484;-83
2022/08/23 01:10:53;;;;;;;;;7.00;5.67;;;;;24.61;61.68;98063.31;6104330;22;103937;-83
2022/08/23 01:13:53;;;;;;;;;5.00;5.00;;;;;24.61;61.71;98061.38;6111805;22;102480;-83
2022/08/23 01:16:50;;;;;;;;;7.67;7.00;;;;;24.62;61.91;98070.50;6128601;22;102260;-83
2022/08/23 01:19:54;;;;;;;;;7.00;6.00;;;;;24.61;61.79;98075.19;6120705;22;102273;-83
2022/08/23 01:22:59;;;;;;;;;7.00;6.00;;;;;24.61;61.87;98077.97;6125417;22;108222;-83
2022/08/23 01:25:45;;;;;;;;;6.00;6.00;;;;;24.59;61.72;98080.19;6126871;22;102355;-83
2022/08/23 01:28:23;;;;;;;;;6.00;5.00;;;;;24.60;61.98;98075.50;6116657;22;102519;-82
2022/08/23 01:30:51;;;;;;;;;8.00;7.00;;;;;24.59;61.91;98074.66;6119870;22;102333;-82
2022/08/23 01:33:18;;;;;;;;;6.33;6.33;;;;;24.59;62.13;98080.19;6147732;22;103975;-83
2022/08/23 01:35:50;;;;;;;;;7.00;5.33;;;;;24.60;61.64;98076.31;6119037;22;102198;-83
2022/08/23 01:38:17;;;;;;;;;5.00;5.00;;;;;24.58;61.81;98075.81;6120302;22;102336;-83
2022/08/23 01:40:44;;;;;;;;;6.33;6.33;;;;;24.58;61.91;98072.22;5937403;22;103320;-83
2022/08/23 01:43:12;;;;;;;;;6.33;6.00;;;;;24.59;61.54;98073.84;6102734;22;103995;-83
2022/08/23 01:45:39;;;;;;;;;8.33;7.33;;;;;24.59;61.62;98077.44;6098341;22;105297;-83
2022/08/23 01:48:07;;;;;;;;;7.00;6.00;;;;;24.58;61.61;98070.28;6120226;22;102372;-83
2022/08/23 01:50:34;;;;;;;;;6.00;6.00;;;;;24.58;61.57;98063.94;6143658;22;102616;-83
2022/08/23 01:53:00;;;;;;;;;6.00;6.00;;;;;24.56;61.62;98061.47;6145635;22;104262;-83
2022/08/23 01:55:28;;;;;;;;;7.00;6.67;;;;;24.58;61.72;98066.69;6105741;22;102411;-83
2022/08/23 01:57:56;;;;;;;;;6.00;6.00;;;;;24.57;61.70;98060.34;6121089;22;102592;-83
2022/08/23 02:00:26;;;;;;;;;6.67;5.67;;;;;24.55;61.87;98065.34;6097447;22;102558;-83
2022/08/23 02:02:52;;;;;;;;;6.33;5.00;;;;;24.55;61.61;98057.06;6093277;22;104632;-83
2022/08/23 02:05:19;;;;;;;;;6.00;5.67;;;;;24.55;61.50;98056.22;6119303;22;102406;-83
2022/08/23 02:07:46;;;;;;;;;6.00;6.00;;;;;24.57;61.84;98071.41;6148581;22;102195;-83
2022/08/23 02:10:14;;;;;;;;;5.00;5.00;;;;;24.56;61.55;98075.28;6097032;22;102488;-83
2022/08/23 02:12:41;;;;;;;;;5.33;5.33;;;;;24.54;61.67;98072.00;6118429;22;104251;-83
2022/08/23 02:15:08;;;;;;;;;8.00;7.00;;;;;24.55;61.89;98065.34;6120198;22;102531;-83
2022/08/23 02:17:35;;;;;;;;;4.67;4.67;;;;;24.55;61.73;98062.59;6121927;22;102745;-83
2022/08/23 02:20:04;;;;;;;;;5.33;4.67;;;;;24.55;61.80;98064.53;6104450;22;102437;-83
2022/08/23 02:22:32;;;;;;;;;5.67;5.67;;;;;24.55;61.85;98078.34;6092597;22;104002;-83
2022/08/23 02:24:59;;;;;;;;;6.33;5.33;;;;;24.55;61.71;98083.88;6116877;22;102982;-83
2022/08/23 02:27:29;;;;;;;;;6.67;6.00;;;;;24.54;61.57;98082.25;6114771;22;102564;-83
2022/08/23 02:29:58;;;;;;;;;6.00;5.00;;;;;24.54;61.54;98088.59;6120265;22;102411;-83
2022/08/23 02:32:27;;;;;;;;;7.00;7.00;;;;;24.54;61.50;98083.06;6092019;22;104173;-82
2022/08/23 02:34:54;;;;;;;;;5.00;5.00;;;;;24.51;61.43;98075.38;6118507;22;102356;-82
2022/08/23 02:37:32;;;;;;;;;5.33;5.00;;;;;24.48;61.46;98072.41;6143397;22;101802;-83
2022/08/23 02:39:59;;;;;;;;;6.00;6.00;;;;;24.47;61.69;98079.06;6144698;22;102418;-83
2022/08/23 02:42:26;;;;;;;;;5.33;5.33;;;;;24.47;61.68;98085.41;6115362;22;104431;-83
2022/08/23 02:44:54;;;;;;;;;7.33;6.00;;;;;24.46;61.61;98083.75;6118201;22;102600;-83
2022/08/23 02:47:22;;;;;;;;;5.00;5.00;;;;;24.52;61.64;98096.38;6143891;22;102297;-83
2022/08/23 02:49:50;;;;;;;;;4.33;4.33;;;;;24.51;61.40;98083.66;6099911;22;102378;-83
2022/08/23 02:52:17;;;;;;;;;5.33;5.00;;;;;24.52;61.56;98088.09;6145870;22;108254;-83
2022/08/23 02:54:44;;;;;;;;;7.00;6.67;;;;;24.53;61.36;98091.66;6144157;22;102108;-83
2022/08/23 02:57:11;;;;;;;;;5.67;5.67;;;;;24.52;61.39;98084.50;6145984;22;102509;-83
2022/08/23 02:59:38;;;;;;;;;5.67;5.00;;;;;24.47;61.63;98082.63;6118862;22;102628;-83
2022/08/23 03:02:05;;;;;;;;;5.67;5.33;;;;;24.45;61.45;98080.16;6140489;22;103850;-82
2022/08/23 03:04:32;;;;;;;;;3.33;3.33;;;;;24.51;61.47;98088.38;6116387;22;102221;-82
2022/08/23 03:06:59;;;;;;;;;7.00;6.00;;;;;24.50;61.29;98082.03;6145790;22;102090;-82
2022/08/23 03:09:26;;;;;;;;;4.67;4.67;;;;;24.49;61.71;98091.47;6146572;22;102247;-83
2022/08/23 03:11:53;;;;;;;;;6.67;6.00;;;;;24.51;61.50;98094.72;6119704;22;104452;-83
2022/08/23 03:14:23;;;;;;;;;5.67;5.67;;;;;24.51;61.31;98093.91;6147035;22;102469;-83
2022/08/23 03:16:50;;;;;;;;;4.00;4.00;;;;;24.47;61.26;98092.88;6116098;22;102051;-83
2022/08/23 03:19:17;;;;;;;;;6.67;6.00;;;;;24.47;61.26;98096.47;6122058;22;102623;-83
2022/08/23 03:21:44;;;;;;;;;5.67;5.33;;;;;24.49;61.53;98101.69;6092485;22;108974;-82
2022/08/23 03:24:12;;;;;;;;;5.00;5.00;;;;;24.44;60.95;98089.59;6142295;22;102533;-83
2022/08/23 03:26:43;;;;;;;;;7.00;6.00;;;;;24.48;61.29;98094.53;6117870;22;102634;-83
2022/08/23 03:29:11;;;;;;;;;5.33;5.33;;;;;24.46;61.41;98097.56;6112359;22;104980;-83
2022/08/23 03:31:40;;;;;;;;;4.00;4.00;;;;;24.49;61.51;98087.88;6134807;22;105283;-83
2022/08/23 03:34:07;;;;;;;;;4.00;4.00;;;;;24.48;61.47;98094.53;6145389;22;102168;-83
2022/08/23 03:36:34;;;;;;;;;4.00;4.00;;;;;24.48;61.33;98098.09;6143407;22;107281;-83
2022/08/23 03:39:02;;;;;;;;;5.00;4.00;;;;;24.49;61.83;98107.22;6097873;22;102089;-82
2022/08/23 03:41:29;;;;;;;;;5.00;4.33;;;;;24.48;61.40;98103.63;6096455;22;103914;-82
2022/08/23 03:43:56;;;;;;;;;6.67;5.00;;;;;24.48;61.37;98095.34;6150321;22;102106;-82
2022/08/23 03:46:23;;;;;;;;;6.00;6.00;;;;;24.45;61.39;98095.97;6122338;22;102292;-83
2022/08/23 03:48:55;;;;;;;;;5.00;4.00;;;;;24.48;61.54;98092.59;6150342;22;102412;-82
2022/08/23 03:51:22;;;;;;;;;6.00;4.67;;;;;24.48;61.18;98097.28;6144413;22;104170;-82
2022/08/23 03:53:49;;;;;;;;;5.67;5.33;;;;;24.48;61.41;98105.56;6099774;22;102531;-83
2022/08/23 03:56:32;;;;;;;;;5.67;5.00;;;;;24.47;61.30;98109.47;6082907;22;102559;-83
2022/08/23 03:59:04;;;;;;;;;5.00;5.00;;;;;24.45;61.20;98104.25;6146009;22;102633;-83
2022/08/23 04:01:31;;;;;;;;;4.00;4.00;;;;;24.44;61.14;98110.91;6147886;22;104149;-83
2022/08/23 04:03:58;;;;;;;;;4.67;4.67;;;;;24.45;61.24;98118.06;6112679;22;102315;-83
2022/08/23 04:06:26;;;;;;;;;4.00;4.00;;;;;24.45;61.27;98121.63;6088395;22;102295;-83
2022/08/23 04:08:53;;;;;;;;;4.67;4.67;;;;;24.45;61.54;98132.69;6082784;22;102479;-83
2022/08/23 04:11:21;;;;;;;;;6.33;6.00;;;;;24.46;61.61;98130.75;6086115;22;104027;-82
2022/08/23 04:13:48;;;;;;;;;5.33;5.33;;;;;24.43;61.31;98129.41;6102458;22;102251;-82
2022/08/23 04:16:17;;;;;;;;;4.33;4.00;;;;;24.46;61.25;98136.28;6115620;22;102624;-82
2022/08/23 04:18:44;;;;;;;;;5.33;5.33;;;;;24.44;61.23;98135.78;6141614;22;102447;-82
2022/08/23 04:21:13;;;;;;;;;4.00;3.67;;;;;24.42;61.00;98138.00;6091901;22;103999;-82
2022/08/23 04:23:40;;;;;;;;;4.00;4.00;;;;;24.44;60.89;98147.66;6091357;22;102169;-82
2022/08/23 04:26:07;;;;;;;;;4.00;4.00;;;;;24.43;61.26;98136.88;6119614;22;102544;-82
2022/08/23 04:28:35;;;;;;;;;5.33;5.00;;;;;24.44;61.31;98141.31;6147892;22;102435;-82
2022/08/23 04:31:03;;;;;;;;;4.00;4.00;;;;;24.43;61.24;98128.59;6096658;22;103458;-82
2022/08/23 04:33:31;;;;;;;;;6.00;5.33;;;;;24.45;61.18;98131.91;6144495;22;102172;-82
2022/08/23 04:35:59;;;;;;;;;4.33;4.33;;;;;24.43;61.09;98132.19;6116988;22;102512;-83
2022/08/23 04:38:26;;;;;;;;;5.00;5.00;;;;;24.44;61.20;98138.53;6117915;22;102266;-83
2022/08/23 04:43:39;;;;;;;;;5.00;4.33;;;;;24.44;61.46;98138.53;6125380;22;102342;-83
2022/08/23 04:46:06;;;;;;;;;4.67;4.00;;;;;24.43;61.31;98136.88;6142593;22;102622;-83
2022/08/23 04:48:34;;;;;;;;;5.00;4.67;;;;;24.42;61.02;98144.34;6096295;22;102445;-83
2022/08/23 04:51:01;;;;;;;;;4.33;4.33;;;;;24.42;61.06;98149.88;6100909;22;104382;-83
2022/08/23 04:53:29;;;;;;;;;6.00;6.00;;;;;24.42;61.19;98146.28;6119775;22;102379;-83
2022/08/23 04:55:56;;;;;;;;;4.00;4.00;;;;;24.42;61.25;98144.34;6148266;22;102647;-83
2022/08/23 04:58:23;;;;;;;;;3.33;3.33;;;;;24.42;61.04;98147.13;6143894;22;102317;-83
2022/08/23 05:00:53;;;;;;;;;3.00;3.00;;;;;24.43;61.16;98147.94;6123683;22;104163;-83
2022/08/23 05:03:20;;;;;;;;;3.33;3.00;;;;;24.43;61.14;98147.94;6143609;22;104706;-83
2022/08/23 05:05:47;;;;;;;;;5.00;5.00;;;;;24.41;61.48;98147.41;6097858;22;102440;-83
2022/08/23 05:08:14;;;;;;;;;4.00;4.00;;;;;24.41;61.41;98139.13;6146199;22;102477;-83
2022/08/23 05:10:41;;;;;;;;;3.00;3.00;;;;;24.42;61.23;98146.28;6147019;22;103999;-83
2022/08/23 05:13:08;;;;;;;;;5.00;4.00;;;;;24.43;61.47;98150.72;6147932;22;102938;-83
2022/08/23 05:15:35;;;;;;;;;4.00;3.67;;;;;24.42;61.43;98152.66;6147450;22;104862;-83
2022/08/23 05:18:02;;;;;;;;;4.00;3.33;;;;;24.43;61.45;98159.81;6146251;22;102513;-83
2022/08/23 05:20:30;;;;;;;;;4.00;4.00;;;;;24.42;61.26;98152.66;6136004;22;104002;-83
2022/08/23 05:22:58;;;;;;;;;3.00;3.00;;;;;24.41;61.42;98153.75;6147329;22;102588;-83
2022/08/23 05:25:48;;;;;;;;;4.67;4.67;;;;;24.42;61.57;98166.47;6122421;22;104805;-83
2022/08/23 05:28:12;;;;;;;;;5.00;5.00;;;;;24.42;61.54;98171.16;6151044;22;102410;-83
2022/08/23 05:30:40;;;;;;;;;4.33;4.33;;;;;24.41;61.68;98169.53;6149581;22;103447;-83
2022/08/23 05:33:14;;;;;;;;;3.00;3.00;;;;;24.41;61.44;98173.09;6142255;22;102141;-83
2022/08/23 05:35:42;;;;;;;;;3.67;3.33;;;;;24.42;61.42;98176.69;6148579;22;102319;-83
2022/08/23 05:38:08;;;;;;;;;6.33;5.67;;;;;24.41;61.49;98184.16;6148487;22;102325;-83
2022/08/23 05:40:35;;;;;;;;;3.00;3.00;;;;;24.42;61.45;98179.47;6149510;22;103953;-83
2022/08/23 05:43:04;;;;;;;;;5.00;4.00;;;;;24.41;61.68;98178.63;6118787;22;102256;-83
2022/08/23 05:45:30;;;;;;;;;5.33;4.67;;;;;24.42;61.71;98180.28;6149819;22;102143;-83
2022/08/23 05:47:57;;;;;;;;;2.00;2.00;;;;;24.41;61.49;98188.88;6146057;22;102292;-83
2022/08/23 05:50:25;;;;;;;;;5.33;4.67;;;;;24.43;61.93;98186.63;6144545;22;103900;-83
2022/08/23 05:52:51;;;;;;;;;5.00;5.00;;;;;24.42;61.52;98187.75;6121197;22;102283;-83
2022/08/23 05:55:18;;;;;;;;;3.00;3.00;;;;;24.42;61.76;98182.22;6150918;22;102187;-83
2022/08/23 05:57:49;;;;;;;;;5.67;4.00;;;;;24.40;61.86;98184.50;6123930;22;102397;-83
2022/08/23 06:00:16;;;;;;;;;4.00;4.00;;;;;24.38;61.95;98181.19;6068586;22;104093;-83
2022/08/23 06:02:43;;;;;;;;;4.00;4.00;;;;;24.41;61.74;98195.22;6144296;22;103092;-83
2022/08/23 06:05:10;;;;;;;;;4.00;4.00;;;;;24.41;61.73;98194.41;6145614;22;102317;-83
2022/08/23 06:07:37;;;;;;;;;3.67;3.67;;;;;24.41;61.81;98188.88;6124434;22;102563;-83
2022/08/23 06:10:04;;;;;;;;;3.33;3.33;;;;;24.39;61.66;98199.41;6147021;22;104084;-83
2022/08/23 06:12:31;;;;;;;;;3.67;3.67;;;;;24.40;61.80;98195.53;6149649;22;102548;-83
2022/08/23 06:14:59;;;;;;;;;4.67;4.33;;;;;24.40;61.60;98198.31;6121832;22;102107;-83
2022/08/23 06:17:27;;;;;;;;;4.33;4.00;;;;;24.40;61.91;98192.78;6122378;22;102090;-83
2022/08/23 06:19:54;;;;;;;;;4.67;3.00;;;;;24.40;61.66;98198.31;6094935;22;103999;-83
2022/08/23 06:22:21;;;;;;;;;3.00;3.00;;;;;24.40;61.78;98203.84;6097574;22;102303;-83
2022/08/23 06:24:48;;;;;;;;;3.00;3.00;;;;;24.40;61.49;98204.66;6127499;22;102440;-83
2022/08/23 06:27:15;;;;;;;;;3.67;3.00;;;;;24.40;61.70;98210.19;6122118;22;102474;-83
2022/08/23 06:29:42;;;;;;;;;4.33;4.33;;;;;24.40;61.75;98204.66;6123194;22;104151;-83
2022/08/23 06:32:09;;;;;;;;;4.00;3.00;;;;;24.41;61.70;98205.44;6121914;22;101979;-83
2022/08/23 06:34:36;;;;;;;;;4.00;3.00;;;;;24.41;61.92;98216.50;6097919;22;102389;-83
2022/08/23 06:37:10;;;;;;;;;3.33;3.33;;;;;24.41;61.74;98210.97;6090442;22;102539;-83
2022/08/23 06:39:37;;;;;;;;;5.00;5.00;;;;;24.41;61.92;98216.50;6148318;22;103818;-83
2022/08/23 06:42:15;;;;;;;;;4.33;3.33;;;;;24.40;61.88;98210.19;6123439;22;102498;-83
2022/08/23 06:45:02;;;;;;;;;3.33;3.00;;;;;24.41;61.93;98209.03;6148590;22;102130;-83
2022/08/23 06:47:30;;;;;;;;;4.00;4.00;;;;;24.41;61.82;98222.03;6124108;22;102362;-83
2022/08/23 06:49:57;;;;;;;;;3.00;3.00;;;;;24.39;61.72;98218.75;6146033;22;103720;-83
2022/08/23 06:52:26;;;;;;;;;4.67;4.00;;;;;24.41;61.77;98230.31;6140529;22;102520;-83
2022/08/23 06:54:53;;;;;;;;;3.00;3.00;;;;;24.40;61.44;98226.78;6149257;22;102287;-83
2022/08/23 06:57:20;;;;;;;;;3.00;3.00;;;;;24.41;61.34;98227.56;6153557;22;102492;-83
2022/08/23 06:59:48;;;;;;;;;3.33;3.33;;;;;24.42;61.38;98226.44;6148203;22;108730;-83
2022/08/23 07:02:15;;;;;;;;;3.33;3.00;;;;;24.39;61.37;98230.66;6146730;22;102505;-83
2022/08/23 07:04:42;;;;;;;;;4.00;3.00;;;;;24.41;61.67;98236.69;6146287;22;102458;-84
2022/08/23 07:07:09;;;;;;;;;3.67;3.67;;;;;24.41;61.43;98224.81;6149318;22;102135;-83
2022/08/23 07:09:38;;;;;;;;;3.00;3.00;;;;;24.41;61.56;98231.16;6145563;22;104188;-83
2022/08/23 07:12:05;;;;;;;;;4.00;4.00;;;;;24.41;61.31;98225.63;6147680;22;102476;-83
2022/08/23 07:14:32;;;;;;;;;3.00;3.00;;;;;24.41;61.33;98231.16;6145851;22;102431;-83
2022/08/23 07:17:00;;;;;;;;;4.00;2.00;;;;;24.42;61.38;98229.22;6118942;22;102767;-83
2022/08/23 07:19:29;;;;;;;;;4.00;4.00;;;;;24.41;61.62;98227.56;6141093;22;104187;-83
2022/08/23 07:21:58;;;;;;;;;3.00;3.00;;;;;24.41;61.32;98227.56;6148499;22;102120;-83
2022/08/23 07:24:25;;;;;;;;;3.67;3.67;;;;;24.40;61.40;98231.47;6124780;22;102277;-83
2022/08/23 07:26:58;;;;;;;;;3.33;3.00;;;;;24.40;61.26;98235.06;6146931;22;102406;-83
2022/08/23 07:29:25;;;;;;;;;3.00;3.00;;;;;24.40;61.19;98223.19;6146248;22;103966;-83
2022/08/23 07:31:53;;;;;;;;;3.00;3.00;;;;;24.40;61.35;98237.81;6123728;22;102538;-83
2022/08/23 07:34:21;;;;;;;;;3.00;3.00;;;;;24.40;61.37;98225.94;6116680;22;102536;-82
2022/08/23 07:36:48;;;;;;;;;3.67;3.00;;;;;24.40;61.16;98226.78;6169726;22;102451;-83
2022/08/23 07:39:17;;;;;;;;;5.00;3.33;;;;;24.40;61.06;98229.53;6146855;22;104090;-83
2022/08/23 07:41:45;;;;;;;;;3.00;3.00;;;;;24.40;61.04;98232.28;6145744;22;102339;-83
2022/08/23 07:44:15;;;;;;;;;3.00;3.00;;;;;24.41;61.31;98238.63;6145344;22;102386;-83
2022/08/23 07:46:44;;;;;;;;;3.00;2.67;;;;;24.41;61.18;98244.97;6149624;22;102623;-83
2022/08/23 07:49:12;;;;;;;;;3.00;3.00;;;;;24.41;61.17;98244.16;6142976;22;105442;-83
2022/08/23 07:51:39;;;;;;;;;3.67;3.33;;;;;24.41;61.21;98238.63;6142921;22;101908;-83
2022/08/23 07:54:08;;;;;;;;;3.00;3.00;;;;;24.41;60.93;98246.91;6092558;22;104497;-84
2022/08/23 07:56:35;;;;;;;;;3.00;3.00;;;;;24.41;61.00;98238.63;6117651;22;102381;-83
2022/08/23 07:59:03;;;;;;;;;2.33;2.33;;;;;24.41;61.15;98244.16;6143880;22;103986;-83
2022/08/23 08:01:30;;;;;;;;;3.00;3.00;;;;;24.40;60.85;98243.34;6139160;22;102240;-84
2022/08/23 08:03:59;;;;;;;;;3.00;3.00;;;;;24.41;61.03;98249.69;6117013;22;102287;-84
2022/08/23 08:06:28;;;;;;;;;3.00;3.00;;;;;24.41;61.11;98244.16;6112321;22;102444;-83
2022/08/23 08:08:56;;;;;;;;;2.67;2.67;;;;;24.40;61.18;98248.88;6115346;22;105920;-83
2022/08/23 08:11:25;;;;;;;;;2.00;2.00;;;;;24.36;61.37;98256.09;6095979;22;102455;-83
2022/08/23 08:14:04;;;;;;;;;2.33;2.00;;;;;24.41;61.18;98263.50;6123494;22;102540;-83
2022/08/23 08:16:42;;;;;;;;;3.67;3.00;;;;;24.41;60.97;98256.03;6147423;22;102837;-83
2022/08/23 08:19:11;;;;;;;;;3.00;3.00;;;;;24.41;61.16;98266.25;6146409;22;103914;-83
2022/08/23 08:21:41;;;;;;;;;2.33;2.33;;;;;24.42;61.13;98262.38;6119577;22;102303;-84
2022/08/23 08:24:09;;;;;;;;;4.00;4.00;;;;;24.42;60.99;98267.91;6147632;22;102441;-83
2022/08/23 08:26:36;;;;;;;;;3.67;3.00;;;;;24.41;60.85;98267.09;6120472;22;102367;-83
2022/08/23 08:29:04;;;;;;;;;3.67;3.00;;;;;24.41;60.92;98269.03;6093644;22;104330;-83
2022/08/23 08:31:31;;;;;;;;;4.00;4.00;;;;;24.41;60.74;98278.13;6086337;22;109302;-83
2022/08/23 08:33:58;;;;;;;;;2.33;2.00;;;;;24.42;60.86;98278.97;6119884;22;102585;-83
2022/08/23 08:36:29;;;;;;;;;3.00;2.33;;;;;24.42;60.99;98288.09;6121257;22;102135;-83
2022/08/23 08:38:56;;;;;;;;;3.00;3.00;;;;;24.42;60.61;98290.03;6144969;22;104152;-83
2022/08/23 08:41:47;;;;;;;;;4.67;3.00;;;;;24.44;61.08;98293.31;6096717;22;102268;-83
2022/08/23 08:44:35;;;;;;;;;2.00;2.00;;;;;24.43;60.80;98295.25;6122364;22;102492;-83
2022/08/23 08:47:10;;;;;;;;;4.00;3.00;;;;;24.44;61.08;98296.09;6147816;22;102163;-83
2022/08/23 08:50:00;;;;;;;;;2.00;2.00;;;;;24.44;60.92;98298.84;6121901;22;104313;-83
2022/08/23 08:52:39;;;;;;;;;3.00;2.00;;;;;24.44;60.77;98294.16;6140256;22;102463;-83
2022/08/23 08:55:13;;;;;;;;;1.33;1.33;;;;;24.44;61.06;98293.31;6095861;22;105607;-83
2022/08/23 08:57:43;;;;;;;;;4.33;4.00;;;;;24.44;60.72;98293.31;6121896;22;102238;-83
2022/08/23 09:00:12;;;;;;;;;3.00;3.00;;;;;24.44;60.65;98293.31;6120006;22;104135;-83
2022/08/23 09:02:39;;;;;;;;;3.33;3.00;;;;;24.43;61.12;98297.19;6124339;22;102311;-83
2022/08/23 09:05:10;;;;;;;;;3.00;2.00;;;;;24.43;60.71;98288.91;6147362;22;102483;-83
2022/08/23 09:07:43;;;;;;;;;2.00;2.00;;;;;24.44;60.75;98296.09;6125494;22;102258;-83
2022/08/23 09:10:18;;;;;;;;;3.67;3.67;;;;;24.44;60.82;98293.31;6109761;22;103112;-84
2022/08/23 09:13:13;;;;;;;;;2.67;2.67;;;;;24.45;60.75;98300.50;6148949;22;102229;-83
2022/08/23 09:15:53;;;;;;;;;3.67;3.67;;;;;24.46;60.65;98302.13;6147210;22;102411;-83
2022/08/23 09:18:22;;;;;;;;;4.00;3.00;;;;;24.46;60.75;98318.72;6148843;22;102595;-83
2022/08/23 09:20:51;;;;;;;;;3.00;2.00;;;;;24.45;60.75;98306.03;6122587;22;108652;-84
2022/08/23 09:23:25;;;;;;;;;5.00;3.33;;;;;24.45;61.24;98306.81;6149023;22;102209;-83
2022/08/23 09:25:56;;;;;;;;;3.33;3.33;;;;;24.45;60.88;98306.81;6145120;22;103076;-83
2022/08/23 09:28:30;;;;;;;;;3.33;3.33;;;;;24.46;61.10;98302.13;6150325;22;102439;-83
2022/08/23 09:30:58;;;;;;;;;3.67;3.00;;;;;24.46;60.82;98307.66;6123935;22;103921;-83
2022/08/23 09:33:42;;;;;;;;;4.00;3.00;;;;;24.46;61.31;98315.94;6121276;22;102366;-82
2022/08/23 09:36:21;;;;;;;;;3.33;3.00;;;;;24.48;60.59;98321.19;6098719;22;102593;-83
2022/08/23 09:39:03;;;;;;;;;4.67;3.33;;;;;24.48;60.92;98319.25;6146764;22;102238;-83
2022/08/23 09:41:35;;;;;;;;;2.67;2.67;;;;;24.48;60.82;98312.88;6145243;22;108922;-83
2022/08/23 09:44:07;;;;;;;;;2.00;2.00;;;;;24.47;60.97;98317.59;6146480;22;102336;-83
2022/08/23 09:46:37;;;;;;;;;3.00;3.00;;;;;24.47;60.76;98319.53;6148021;22;102243;-83
2022/08/23 09:49:34;;;;;;;;;3.00;3.00;;;;;24.47;61.00;98323.13;6124257;22;102387;-83
2022/08/23 09:52:11;;;;;;;;;2.00;2.00;;;;;24.49;60.85;98326.44;6118805;22;108544;-83
2022/08/23 09:54:55;;;;;;;;;2.33;2.33;;;;;24.48;60.95;98322.00;6121477;22;101984;-83
2022/08/23 09:57:25;;;;;;;;;2.00;2.00;;;;;24.49;61.02;98315.38;6092586;22;102316;-83
2022/08/23 09:59:55;;;;;;;;;3.33;3.00;;;;;24.49;60.76;98317.31;6098590;22;102152;-83
2022/08/23 10:02:25;;;;;;;;;4.00;3.00;;;;;24.50;60.87;98317.00;6122134;22;104084;-83
2022/08/23 10:04:52;;;;;;;;;4.67;4.67;;;;;24.50;60.83;98319.75;6119726;22;103012;-83
2022/08/23 10:07:32;;;;;;;;;4.00;3.00;;;;;24.51;60.96;98317.81;6126795;22;102603;-83
2022/08/23 10:10:42;;;;;;;;;2.67;2.67;;;;;24.51;60.98;98318.63;6105076;22;102468;-83
2022/08/23 10:13:13;;;;;;;;;3.33;2.33;;;;;24.51;60.75;98326.94;6105242;22;109205;-83
2022/08/23 10:15:52;;;;;;;;;3.00;2.00;;;;;24.50;61.02;98327.22;6095428;22;102170;-83
2022/08/23 10:18:40;;;;;;;;;2.00;2.00;;;;;24.51;60.82;98331.63;6147773;22;102548;-83
2022/08/23 10:21:21;;;;;;;;;3.00;3.00;;;;;24.51;60.76;98331.63;6145630;22;102326;-83
2022/08/23 10:23:53;;;;;;;;;2.67;2.67;;;;;24.50;60.85;98330.81;6120784;22;109278;-83
2022/08/23 10:26:33;;;;;;;;;3.00;3.00;;;;;24.49;60.90;98329.19;6146045;22;102210;-83
2022/08/23 10:29:39;;;;;;;;;2.00;2.00;;;;;24.49;60.73;98329.19;6114401;22;102374;-83
2022/08/23 10:32:15;;;;;;;;;3.00;2.67;;;;;24.50;60.94;98336.34;6080306;22;102410;-83
2022/08/23 10:34:52;;;;;;;;;3.00;3.00;;;;;24.45;60.79;98325.38;6095823;22;104021;-83
2022/08/23 10:37:32;;;;;;;;;3.00;3.00;;;;;24.51;60.88;98342.69;6122256;22;102346;-83
2022/08/23 10:40:27;;;;;;;;;3.00;3.00;;;;;24.51;60.60;98337.16;6119659;22;102089;-83
2022/08/23 10:43:12;;;;;;;;;3.00;3.00;;;;;24.52;60.67;98341.59;6116757;22;102414;-83
2022/08/23 10:45:40;;;;;;;;;2.00;2.00;;;;;24.52;60.60;98338.81;6118553;22;103962;-83
2022/08/23 10:48:28;;;;;;;;;4.00;3.33;;;;;24.52;60.83;98350.69;6123943;22;102246;-83
2022/08/23 10:50:59;;;;;;;;;3.00;3.00;;;;;24.51;60.84;98343.50;6097974;22;102351;-83
2022/08/23 10:53:34;;;;;;;;;1.00;1.00;;;;;24.51;60.79;98342.69;6147373;22;102509;-83
2022/08/23 10:56:04;;;;;;;;;3.00;2.00;;;;;24.50;60.83;98344.63;6147552;22;102724;-83
2022/08/23 10:58:41;;;;;;;;;2.67;2.33;;;;;24.51;61.06;98349.03;6147456;22;102570;-83
2022/08/23 11:01:08;;;;;;;;;1.33;1.33;;;;;24.52;60.72;98344.34;6145468;22;102482;-83
2022/08/23 11:03:43;;;;;;;;;3.00;3.00;;;;;24.51;60.80;98339.94;6124798;22;102367;-84
2022/08/23 11:06:43;;;;;;;;;3.67;2.33;;;;;24.51;61.10;98339.94;6141822;22;103587;-84
2022/08/23 11:09:16;;;;;;;;;2.00;2.00;;;;;24.52;60.51;98338.81;6120694;22;102265;-83
2022/08/23 11:11:45;;;;;;;;;2.00;2.00;;;;;24.53;60.70;98340.47;6144142;22;102233;-84
2022/08/23 11:14:35;;;;;;;;;3.67;3.00;;;;;24.53;60.72;98341.28;6143984;22;103887;-84
2022/08/23 11:17:04;;;;;;;;;3.00;3.00;;;;;24.53;60.57;98346.81;6123938;22;109091;-84
2022/08/23 11:19:50;;;;;;;;;2.67;2.67;;;;;24.54;60.71;98345.69;6149528;22;102677;-84
2022/08/23 11:22:21;;;;;;;;;4.00;4.00;;;;;24.56;60.68;98350.91;6136236;22;102662;-84
2022/08/23 11:24:56;;;;;;;;;2.33;2.33;;;;;24.56;60.61;98351.75;6150729;22;102146;-84
2022/08/23 11:27:40;;;;;;;;;1.00;1.00;;;;;24.57;60.74;98347.03;6143055;22;108867;-84
2022/08/23 11:30:31;;;;;;;;;2.00;2.00;;;;;24.57;60.71;98353.41;6121223;22;102015;-84
2022/08/23 11:33:02;;;;;;;;;3.00;2.00;;;;;24.57;60.53;98350.63;6149972;22;102295;-84
2022/08/23 11:35:37;;;;;;;;;3.00;3.00;;;;;24.57;60.60;98347.88;6154026;22;102500;-84
2022/08/23 11:38:09;;;;;;;;;3.00;3.00;;;;;24.57;60.58;98345.09;6171605;22;103450;-84
2022/08/23 11:40:55;;;;;;;;;2.00;2.00;;;;;24.59;60.52;98353.06;6169766;22;102202;-84
2022/08/23 11:43:32;;;;;;;;;2.00;1.33;;;;;24.58;60.65;98344.00;6146048;22;102521;-84
2022/08/23 11:46:19;;;;;;;;;3.00;2.67;;;;;24.60;60.29;98338.97;6125030;22;102734;-84
2022/08/23 11:48:54;;;;;;;;;3.00;3.00;;;;;24.61;60.73;98346.16;6012817;22;104177;-84
2022/08/23 11:51:39;;;;;;;;;3.67;3.00;;;;;24.63;60.60;98348.63;6136669;22;102331;-84